createdAt,value
2022-10-18T00:01:02.452Z,96110.59
2022-10-18T00:03:28.842Z,96106.81
2022-10-18T00:05:55.217Z,96109.59
2022-10-18T00:08:21.570Z,96108.22
2022-10-18T00:10:47.942Z,96103.13
2022-10-18T00:13:14.295Z,96112.78
2022-10-18T00:15:40.640Z,96109.31
2022-10-18T00:18:06.991Z,96115.28
2022-10-18T00:20:33.418Z,96115.03
2022-10-18T00:22:59.762Z,96110.59
2022-10-18T00:25:26.100Z,96105.38
2022-10-18T00:27:52.445Z,96111.84
2022-10-18T00:30:18.808Z,96115.56
2022-10-18T00:32:45.158Z,96108.56
2022-10-18T00:35:11.496Z,96120.66
2022-10-18T00:37:37.849Z,96115.19
2022-10-18T00:40:04.213Z,96119.47
2022-10-18T00:42:30.740Z,96116.47
2022-10-18T00:44:57.579Z,96115.84
2022-10-18T00:47:23.983Z,96114.88
2022-10-18T00:49:50.336Z,96115.22
2022-10-18T00:52:16.694Z,96121.75
2022-10-18T00:54:43.060Z,96117.34
2022-10-18T00:57:09.418Z,96114.41
2022-10-18T00:59:35.782Z,96123.38
2022-10-18T01:02:02.195Z,96122.09
2022-10-18T01:04:28.588Z,96126.72
2022-10-18T01:06:54.942Z,96116.88
2022-10-18T01:09:21.293Z,96122.31
2022-10-18T01:11:47.662Z,96127.81
2022-10-18T01:14:14.073Z,96124.44
2022-10-18T01:16:40.445Z,96132.56
2022-10-18T01:19:06.805Z,96119.69
2022-10-18T01:21:33.190Z,96116.19
2022-10-18T01:23:59.541Z,96117.44
2022-10-18T01:26:25.892Z,96118.31
2022-10-18T01:28:52.304Z,96120.53
2022-10-18T01:31:18.712Z,96119.22
2022-10-18T01:33:45.086Z,96119.81
2022-10-18T01:36:11.435Z,96123.75
2022-10-18T01:38:37.783Z,96123.31
2022-10-18T01:41:04.139Z,96119.00
2022-10-18T01:43:30.500Z,96126.88
2022-10-18T01:45:56.835Z,96122.72
2022-10-18T01:48:23.203Z,96122.59
2022-10-18T01:50:49.557Z,96124.22
2022-10-18T01:53:15.927Z,96126.22
2022-10-18T01:55:42.281Z,96121.00
2022-10-18T01:58:08.640Z,96119.69
2022-10-18T02:00:34.977Z,96123.56
2022-10-18T02:03:01.347Z,96121.22
2022-10-18T02:05:27.685Z,96114.41
2022-10-18T02:08:05.636Z,96109.66
2022-10-18T02:10:40.356Z,96117.03
2022-10-18T02:13:06.712Z,96119.34
2022-10-18T02:15:33.070Z,96117.00
2022-10-18T02:17:59.408Z,96121.69
2022-10-18T02:20:25.778Z,96116.47
2022-10-18T02:22:52.130Z,96114.81
2022-10-18T02:25:18.479Z,96115.44
2022-10-18T02:27:44.822Z,96105.94
2022-10-18T02:30:11.168Z,96117.28
2022-10-18T02:32:37.534Z,96105.63
2022-10-18T02:35:03.885Z,96101.50
2022-10-18T02:37:30.262Z,96111.19
2022-10-18T02:39:56.654Z,96103.50
2022-10-18T02:42:23.010Z,96101.28
2022-10-18T02:44:49.384Z,96102.91
2022-10-18T02:47:15.733Z,96107.84
2022-10-18T02:49:42.101Z,96105.38
2022-10-18T02:52:08.478Z,96103.31
2022-10-18T02:54:34.832Z,96104.16
2022-10-18T02:57:01.219Z,96103.59
2022-10-18T02:59:27.562Z,96106.41
2022-10-18T03:01:54.046Z,96113.41
2022-10-18T03:04:20.434Z,96114.44
2022-10-18T03:06:46.821Z,96117.53
2022-10-18T03:09:13.162Z,96122.53
2022-10-18T03:11:39.533Z,96118.63
2022-10-18T03:14:05.883Z,96126.09
2022-10-18T03:16:32.238Z,96124.13
2022-10-18T03:18:58.601Z,96125.38
2022-10-18T03:21:24.957Z,96134.03
2022-10-18T03:23:51.314Z,96136.81
2022-10-18T03:26:17.675Z,96129.88
2022-10-18T03:28:44.083Z,96134.72
2022-10-18T03:31:10.535Z,96145.03
2022-10-18T03:33:36.887Z,96131.09
2022-10-18T03:36:03.252Z,96135.50
2022-10-18T03:38:29.603Z,96139.28
2022-10-18T03:40:55.960Z,96141.56
2022-10-18T03:43:22.363Z,96138.84
2022-10-18T03:45:48.713Z,96141.47
2022-10-18T03:48:15.075Z,96142.00
2022-10-18T03:50:41.491Z,96141.06
2022-10-18T03:53:07.845Z,96140.34
2022-10-18T03:55:34.204Z,96148.34
2022-10-18T03:58:00.572Z,96158.13
2022-10-18T04:00:26.942Z,96157.50
2022-10-18T04:02:55.136Z,96160.72
2022-10-18T04:05:22.401Z,96169.56
2022-10-18T04:07:48.771Z,96168.16
2022-10-18T04:10:15.132Z,96168.22
2022-10-18T04:12:41.487Z,96169.63
2022-10-18T04:15:07.851Z,96174.72
2022-10-18T04:17:34.493Z,96176.28
2022-10-18T04:20:01.160Z,96175.22
2022-10-18T04:22:27.533Z,96177.63
2022-10-18T04:24:53.885Z,96166.03
2022-10-18T04:27:20.264Z,96170.22
2022-10-18T04:29:46.623Z,96166.63
2022-10-18T04:32:13.035Z,96164.16
2022-10-18T04:34:39.411Z,96168.63
2022-10-18T04:37:05.795Z,96168.81
2022-10-18T04:39:32.158Z,96171.22
2022-10-18T04:41:58.499Z,96170.72
2022-10-18T04:44:24.861Z,96167.50
2022-10-18T04:46:51.213Z,96165.13
2022-10-18T04:49:17.601Z,96170.75
2022-10-18T04:51:43.962Z,96167.28
2022-10-18T04:54:10.314Z,96174.59
2022-10-18T04:56:36.663Z,96182.22
2022-10-18T04:59:03.017Z,96180.25
2022-10-18T05:01:29.390Z,96185.81
2022-10-18T05:03:55.789Z,96189.56
2022-10-18T05:06:22.155Z,96190.00
2022-10-18T05:08:48.492Z,96185.50
2022-10-18T05:11:14.899Z,96172.03
2022-10-18T05:13:41.242Z,96174.91
2022-10-18T05:16:07.701Z,96178.88
2022-10-18T05:18:34.182Z,96185.75
2022-10-18T05:21:00.519Z,96180.31
2022-10-18T05:23:26.895Z,96177.06
2022-10-18T05:25:53.256Z,96183.16
2022-10-18T05:28:39.576Z,96175.69
2022-10-18T05:31:06.009Z,96182.38
2022-10-18T05:33:32.379Z,96187.72
2022-10-18T05:35:58.748Z,96185.59
2022-10-18T05:38:25.145Z,96179.94
2022-10-18T05:40:51.543Z,96182.72
2022-10-18T05:43:17.889Z,96188.88
2022-10-18T05:45:44.267Z,96184.75
2022-10-18T05:48:10.621Z,96182.63
2022-10-18T05:50:39.608Z,96181.19
2022-10-18T05:53:12.759Z,96179.00
2022-10-18T05:55:51.019Z,96183.88
2022-10-18T05:58:17.370Z,96176.59
2022-10-18T06:00:43.721Z,96171.28
2022-10-18T06:03:10.105Z,96172.69
2022-10-18T06:05:36.529Z,96173.75
2022-10-18T06:08:05.270Z,96177.97
2022-10-18T06:10:34.320Z,96177.19
2022-10-18T06:13:00.673Z,96178.06
2022-10-18T06:15:27.014Z,96170.94
2022-10-18T06:17:53.367Z,96176.28
2022-10-18T06:20:19.731Z,96175.13
2022-10-18T06:22:46.085Z,96180.44
2022-10-18T06:25:12.432Z,96178.00
2022-10-18T06:27:38.771Z,96182.56
2022-10-18T06:30:05.182Z,96187.06
2022-10-18T06:32:31.529Z,96188.22
2022-10-18T06:34:57.877Z,96194.44
2022-10-18T06:37:24.238Z,96203.00
2022-10-18T06:39:50.609Z,96205.41
2022-10-18T06:42:19.131Z,96208.69
2022-10-18T06:44:48.209Z,96209.66
2022-10-18T06:47:14.560Z,96211.06
2022-10-18T06:49:40.917Z,96214.50
2022-10-18T06:52:07.301Z,96212.00
2022-10-18T06:54:33.649Z,96207.34
2022-10-18T06:56:59.996Z,96207.97
2022-10-18T06:59:28.900Z,96215.25
2022-10-18T07:01:57.591Z,96210.19
2022-10-18T07:04:23.983Z,96206.22
2022-10-18T07:06:50.335Z,96208.44
2022-10-18T07:09:16.697Z,96210.78
2022-10-18T07:11:43.071Z,96208.44
2022-10-18T07:14:12.555Z,96202.94
2022-10-18T07:16:41.769Z,96208.09
2022-10-18T07:19:08.167Z,96214.03
2022-10-18T07:21:34.512Z,96223.00
2022-10-18T07:24:00.891Z,96217.25
2022-10-18T07:26:27.289Z,96211.63
2022-10-18T07:28:53.739Z,96219.31
2022-10-18T07:31:20.157Z,96222.19
2022-10-18T07:33:46.552Z,96224.56
2022-10-18T07:36:12.919Z,96226.59
2022-10-18T07:38:39.261Z,96219.31
2022-10-18T07:41:05.621Z,96227.25
2022-10-18T07:43:31.970Z,96224.69
2022-10-18T07:45:58.323Z,96227.34
2022-10-18T07:48:24.675Z,96223.16
2022-10-18T07:50:51.035Z,96237.34
2022-10-18T07:53:17.391Z,96230.56
2022-10-18T07:55:43.765Z,96229.22
2022-10-18T07:58:10.148Z,96217.53
2022-10-18T08:00:36.527Z,96216.59
2022-10-18T08:03:02.889Z,96226.59
2022-10-18T08:05:29.278Z,96222.53
2022-10-18T08:07:55.656Z,96231.84
2022-10-18T08:10:21.995Z,96232.66
2022-10-18T08:12:48.368Z,96233.53
2022-10-18T08:15:14.718Z,96240.56
2022-10-18T08:17:41.079Z,96233.16
2022-10-18T08:20:12.422Z,96231.94
2022-10-18T08:22:45.498Z,96231.97
2022-10-18T08:25:11.875Z,96236.38
2022-10-18T08:27:38.278Z,96234.53
2022-10-18T08:30:04.638Z,96230.91
2022-10-18T08:32:31.302Z,96230.56
2022-10-18T08:34:57.789Z,96232.13
2022-10-18T08:37:24.153Z,96226.41
2022-10-18T08:39:50.517Z,96233.34
2022-10-18T08:42:16.860Z,96227.75
2022-10-18T08:44:43.219Z,96223.44
2022-10-18T08:47:09.577Z,96214.75
2022-10-18T08:49:35.937Z,96213.41
2022-10-18T08:52:02.269Z,96215.78
2022-10-18T08:54:28.629Z,96211.03
2022-10-18T08:56:54.968Z,96211.16
2022-10-18T08:59:24.719Z,96221.50
2022-10-18T09:01:52.019Z,96218.59
2022-10-18T09:04:18.562Z,96210.84
2022-10-18T09:06:44.958Z,96203.59
2022-10-18T09:09:11.303Z,96213.25
2022-10-18T09:11:37.682Z,96211.72
2022-10-18T09:14:04.040Z,96209.03
2022-10-18T09:16:30.408Z,96207.38
2022-10-18T09:18:56.767Z,96208.06
2022-10-18T09:21:23.137Z,96198.59
2022-10-18T09:23:49.489Z,96201.94
2022-10-18T09:26:15.840Z,96202.97
2022-10-18T09:28:42.222Z,96201.44
2022-10-18T09:31:08.575Z,96203.59
2022-10-18T09:33:34.911Z,96204.00
2022-10-18T09:36:01.274Z,96201.81
2022-10-18T09:38:27.635Z,96200.78
2022-10-18T09:40:53.993Z,96194.31
2022-10-18T09:43:20.388Z,96192.28
2022-10-18T09:45:46.728Z,96188.81
2022-10-18T09:48:13.109Z,96184.22
2022-10-18T09:50:39.452Z,96186.56
2022-10-18T09:53:05.819Z,96191.44
2022-10-18T09:55:32.156Z,96192.66
2022-10-18T09:57:58.695Z,96194.16
2022-10-18T10:00:25.079Z,96189.91
2022-10-18T10:02:51.488Z,96187.75
2022-10-18T10:05:17.891Z,96189.72
2022-10-18T10:07:44.276Z,96182.97
2022-10-18T10:10:10.650Z,96187.59
2022-10-18T10:12:37.002Z,96186.28
2022-10-18T10:15:03.365Z,96189.75
2022-10-18T10:17:30.144Z,96184.06
2022-10-18T10:19:56.842Z,96187.88
2022-10-18T10:22:23.192Z,96178.44
2022-10-18T10:24:49.553Z,96184.00
2022-10-18T10:27:15.917Z,96192.88
2022-10-18T10:29:44.884Z,96193.91
2022-10-18T10:32:11.467Z,96183.66
2022-10-18T10:34:40.961Z,96188.28
2022-10-18T10:37:10.231Z,96182.44
2022-10-18T10:39:36.576Z,96186.91
2022-10-18T10:42:04.930Z,96180.66
2022-10-18T10:44:33.219Z,96175.72
2022-10-18T10:46:59.593Z,96179.53
2022-10-18T10:49:41.510Z,96174.91
2022-10-18T10:52:08.778Z,96169.06
2022-10-18T10:54:35.528Z,96165.72
2022-10-18T10:57:01.884Z,96168.28
2022-10-18T10:59:28.298Z,96176.41
2022-10-18T11:01:54.717Z,96169.59
2022-10-18T11:04:21.142Z,96172.97
2022-10-18T11:06:47.585Z,96170.88
2022-10-18T11:09:13.945Z,96164.50
2022-10-18T11:11:40.301Z,96157.34
2022-10-18T11:14:24.643Z,96157.19
2022-10-18T11:16:51.938Z,96151.59
2022-10-18T11:19:18.365Z,96146.53
2022-10-18T11:21:44.738Z,96142.94
2022-10-18T11:24:11.089Z,96137.94
2022-10-18T11:26:40.945Z,96131.41
2022-10-18T11:29:09.149Z,96135.53
2022-10-18T11:31:35.501Z,96129.78
2022-10-18T11:34:09.251Z,96122.28
2022-10-18T11:36:36.823Z,96124.97
2022-10-18T11:39:03.319Z,96114.13
2022-10-18T11:41:29.687Z,96110.16
2022-10-18T11:44:03.813Z,96115.94
2022-10-18T11:46:30.420Z,96113.88
2022-10-18T11:48:56.766Z,96102.59
2022-10-18T11:51:29.771Z,96104.34
2022-10-18T11:54:05.128Z,96097.16
2022-10-18T11:56:31.479Z,96089.06
2022-10-18T11:58:57.872Z,96084.69
2022-10-18T12:01:27.670Z,96076.59
2022-10-18T12:03:55.020Z,96079.34
2022-10-18T12:06:21.385Z,96074.88
2022-10-18T12:08:47.741Z,96063.53
2022-10-18T12:11:14.086Z,96061.09
2022-10-18T12:13:40.451Z,96063.97
2022-10-18T12:16:06.807Z,96064.81
2022-10-18T12:18:33.177Z,96061.78
2022-10-18T12:20:59.514Z,96062.75
2022-10-18T12:23:25.914Z,96053.97
2022-10-18T12:25:52.265Z,96058.63
2022-10-18T12:28:18.615Z,96049.00
2022-10-18T12:30:44.963Z,96049.31
2022-10-18T12:33:27.115Z,96043.81
2022-10-18T12:35:54.852Z,96037.94
2022-10-18T12:38:21.215Z,96039.59
2022-10-18T12:40:47.568Z,96037.34
2022-10-18T12:43:13.926Z,96034.44
2022-10-18T12:45:40.279Z,96032.81
2022-10-18T12:48:06.637Z,96035.69
2022-10-18T12:50:32.996Z,96031.44
2022-10-18T12:52:59.336Z,96017.00
2022-10-18T12:55:25.683Z,96028.47
2022-10-18T12:57:52.026Z,96011.63
2022-10-18T13:00:18.389Z,96018.00
2022-10-18T13:02:44.747Z,96013.03
2022-10-18T13:05:21.147Z,96013.94
2022-10-18T13:07:57.478Z,96012.78
2022-10-18T13:10:23.829Z,96009.84
2022-10-18T13:12:50.179Z,96002.88
2022-10-18T13:15:25.258Z,96007.09
2022-10-18T13:17:53.384Z,96004.06
2022-10-18T13:20:27.731Z,95999.44
2022-10-18T13:22:54.293Z,96001.84
2022-10-18T13:25:20.684Z,95994.81
2022-10-18T13:27:47.359Z,95994.13
2022-10-18T13:30:13.935Z,96001.94
2022-10-18T13:32:40.295Z,95998.31
2022-10-18T13:35:06.654Z,95998.91
2022-10-18T13:37:33.008Z,95994.69
2022-10-18T13:39:59.344Z,95993.50
2022-10-18T13:42:25.696Z,95988.72
2022-10-18T13:44:52.046Z,95988.59
2022-10-18T13:47:18.408Z,95988.16
2022-10-18T13:49:44.786Z,95989.19
2022-10-18T13:52:11.141Z,95985.63
2022-10-18T13:54:37.495Z,95989.50
2022-10-18T13:57:03.855Z,95987.22
2022-10-18T13:59:30.241Z,95998.78
2022-10-18T14:01:56.672Z,95996.81
2022-10-18T14:04:23.081Z,95995.31
2022-10-18T14:06:49.432Z,95991.97
2022-10-18T14:09:25.493Z,95988.03
2022-10-18T14:12:02.126Z,95992.28
2022-10-18T14:14:28.467Z,95991.38
2022-10-18T14:16:54.834Z,95990.00
2022-10-18T14:19:21.276Z,95986.19
2022-10-18T14:21:47.629Z,95975.44
2022-10-18T14:24:13.982Z,95975.19
2022-10-18T14:26:40.354Z,95974.13
2022-10-18T14:29:06.789Z,95970.44
2022-10-18T14:31:33.296Z,95969.16
2022-10-18T14:33:59.644Z,95969.91
2022-10-18T14:36:26.009Z,95974.06
2022-10-18T14:38:52.358Z,95969.66
2022-10-18T14:41:18.698Z,95969.34
2022-10-18T14:43:45.079Z,95968.28
2022-10-18T14:46:11.436Z,95963.84
2022-10-18T14:48:37.800Z,95973.69
2022-10-18T14:51:04.158Z,95964.28
2022-10-18T14:53:30.561Z,95961.75
2022-10-18T14:55:56.924Z,95955.06
2022-10-18T14:58:23.261Z,95963.34
2022-10-18T15:00:49.623Z,95966.38
2022-10-18T15:03:16.131Z,95961.88
2022-10-18T15:05:42.488Z,95951.16
2022-10-18T15:08:08.844Z,95956.53
2022-10-18T15:10:35.221Z,95958.78
2022-10-18T15:13:10.233Z,95952.94
2022-10-18T15:15:37.137Z,95956.31
2022-10-18T15:18:03.502Z,95955.66
2022-10-18T15:20:29.866Z,95951.19
2022-10-18T15:22:56.276Z,95951.91
2022-10-18T15:25:22.619Z,95954.66
2022-10-18T15:27:48.979Z,95944.63
2022-10-18T15:30:15.340Z,95952.59
2022-10-18T15:32:41.703Z,95950.16
2022-10-18T15:35:08.054Z,95943.66
2022-10-18T15:37:34.897Z,95948.63
2022-10-18T15:40:01.617Z,95936.47
2022-10-18T15:42:27.965Z,95934.94
2022-10-18T15:44:54.582Z,95934.22
2022-10-18T15:47:20.971Z,95934.22
2022-10-18T15:49:47.355Z,95929.72
2022-10-18T15:52:13.711Z,95929.19
2022-10-18T15:54:40.154Z,95916.78
2022-10-18T15:57:06.540Z,95914.28
2022-10-18T15:59:32.909Z,95912.84
2022-10-18T16:01:59.341Z,95912.84
2022-10-18T16:04:25.723Z,95915.72
2022-10-18T16:06:52.063Z,95914.66
2022-10-18T16:09:18.414Z,95914.47
2022-10-18T16:11:44.761Z,95920.84
2022-10-18T16:14:11.125Z,95916.53
2022-10-18T16:16:37.485Z,95910.28
2022-10-18T16:19:03.838Z,95904.41
2022-10-18T16:21:30.196Z,95907.28
2022-10-18T16:23:56.546Z,95910.09
2022-10-18T16:26:22.982Z,95915.63
2022-10-18T16:28:49.404Z,95913.56
2022-10-18T16:33:47.067Z,95915.72
2022-10-18T16:36:13.427Z,95904.91
2022-10-18T16:38:39.783Z,95918.59
2022-10-18T16:41:06.137Z,95913.25
2022-10-18T16:43:32.505Z,95915.25
2022-10-18T16:45:58.865Z,95924.13
2022-10-18T16:48:25.231Z,95923.22
2022-10-18T16:50:51.583Z,95925.03
2022-10-18T16:53:17.943Z,95926.97
2022-10-18T16:55:44.301Z,95924.13
2022-10-18T16:58:10.699Z,95931.31
2022-10-18T17:00:37.099Z,95926.81
2022-10-18T17:03:03.465Z,95925.97
2022-10-18T17:05:29.813Z,95922.03
2022-10-18T17:07:56.182Z,95927.28
2022-10-18T17:10:22.553Z,95926.38
2022-10-18T17:12:48.887Z,95927.72
2022-10-18T17:15:15.222Z,95922.09
2022-10-18T17:17:41.583Z,95927.78
2022-10-18T17:20:07.968Z,95940.22
2022-10-18T17:22:34.318Z,95940.06
2022-10-18T17:25:00.675Z,95944.03
2022-10-18T17:27:27.094Z,95944.97
2022-10-18T17:29:53.439Z,95946.28
2022-10-18T17:32:19.811Z,95945.31
2022-10-18T17:34:46.192Z,95953.59
2022-10-18T17:37:12.541Z,95955.72
2022-10-18T17:39:38.921Z,95949.69
2022-10-18T17:42:05.284Z,95955.97
2022-10-18T17:44:31.653Z,95953.84
2022-10-18T17:46:58.011Z,95959.59
2022-10-18T17:49:24.370Z,95958.78
2022-10-18T17:51:50.768Z,95960.41
2022-10-18T17:54:17.150Z,95956.72
2022-10-18T17:56:43.538Z,95957.28
2022-10-18T17:59:09.910Z,95963.00
2022-10-18T18:01:36.297Z,95966.88
2022-10-18T18:04:02.682Z,95953.63
2022-10-18T18:06:29.019Z,95965.28
2022-10-18T18:08:55.373Z,95966.50
2022-10-18T18:11:21.772Z,95967.47
2022-10-18T18:13:48.131Z,95969.44
2022-10-18T18:16:14.485Z,95971.88
2022-10-18T18:18:40.859Z,95973.63
2022-10-18T18:21:07.234Z,95980.78
2022-10-18T18:23:33.593Z,95984.66
2022-10-18T18:25:59.967Z,95979.50
2022-10-18T18:28:26.335Z,95981.09
2022-10-18T18:30:52.712Z,95983.59
2022-10-18T18:33:19.077Z,95979.59
2022-10-18T18:35:45.444Z,95983.25
2022-10-18T18:38:11.936Z,95985.28
2022-10-18T18:40:38.315Z,95975.09
2022-10-18T18:43:12.550Z,95983.50
2022-10-18T18:45:48.922Z,95987.06
2022-10-18T18:48:18.993Z,95986.19
2022-10-18T18:50:46.333Z,95990.94
2022-10-18T18:53:12.697Z,95983.38
2022-10-18T18:55:39.075Z,95983.28
2022-10-18T18:58:05.430Z,95978.44
2022-10-18T19:00:31.797Z,95982.22
2022-10-18T19:02:58.162Z,95983.09
2022-10-18T19:05:24.564Z,95978.97
2022-10-18T19:07:50.948Z,95981.47
2022-10-18T19:10:17.367Z,95980.72
2022-10-18T19:12:43.730Z,95983.50
2022-10-18T19:15:10.089Z,95984.66
2022-10-18T19:17:36.496Z,95982.19
2022-10-18T19:20:02.867Z,95980.56
2022-10-18T19:22:29.234Z,95984.78
2022-10-18T19:24:55.614Z,95980.13
2022-10-18T19:27:21.989Z,95981.09
2022-10-18T19:29:48.333Z,95976.38
2022-10-18T19:32:14.742Z,95983.81
2022-10-18T19:34:41.101Z,95980.78
2022-10-18T19:37:07.467Z,95968.81
2022-10-18T19:39:33.813Z,95977.88
2022-10-18T19:42:00.174Z,95977.75
2022-10-18T19:44:26.562Z,95982.72
2022-10-18T19:46:52.973Z,95988.63
2022-10-18T19:49:19.330Z,95981.59
2022-10-18T19:51:45.722Z,95982.56
2022-10-18T19:54:12.114Z,95979.84
2022-10-18T19:56:38.488Z,95984.47
2022-10-18T19:59:04.857Z,95981.69
2022-10-18T20:01:31.276Z,95984.91
2022-10-18T20:03:57.699Z,95983.63
2022-10-18T20:06:24.060Z,95980.28
2022-10-18T20:08:50.418Z,95985.00
2022-10-18T20:11:16.790Z,95978.03
2022-10-18T20:13:43.164Z,95972.75
2022-10-18T20:16:09.520Z,95979.63
2022-10-18T20:18:35.886Z,95974.34
2022-10-18T20:21:02.234Z,95973.59
2022-10-18T20:23:28.593Z,95975.66
2022-10-18T20:25:54.959Z,95972.19
2022-10-18T20:28:21.314Z,95972.94
2022-10-18T20:30:47.676Z,95983.69
2022-10-18T20:33:14.020Z,95980.75
2022-10-18T20:35:40.453Z,95976.97
2022-10-18T20:38:06.824Z,95984.72
2022-10-18T20:40:33.180Z,95981.03
2022-10-18T20:43:03.661Z,95983.59
2022-10-18T20:45:30.403Z,95991.13
2022-10-18T20:47:56.755Z,95982.25
2022-10-18T20:50:23.101Z,95983.84
2022-10-18T20:52:49.475Z,95983.75
2022-10-18T20:55:15.819Z,95979.38
2022-10-18T20:57:42.679Z,95976.69
2022-10-18T21:00:09.215Z,95979.06
2022-10-18T21:02:35.605Z,95984.84
2022-10-18T21:05:01.957Z,95981.31
2022-10-18T21:07:28.319Z,95982.44
2022-10-18T21:09:54.659Z,95971.34
2022-10-18T21:12:21.029Z,95975.38
2022-10-18T21:14:47.400Z,95971.59
2022-10-18T21:17:13.777Z,95971.28
2022-10-18T21:19:40.165Z,95972.88
2022-10-18T21:22:06.524Z,95971.88
2022-10-18T21:24:32.881Z,95962.28
2022-10-18T21:26:59.290Z,95968.19
2022-10-18T21:29:25.672Z,95970.19
2022-10-18T21:31:52.046Z,95963.50
2022-10-18T21:34:18.413Z,95963.50
2022-10-18T21:36:44.766Z,95964.25
2022-10-18T21:39:11.169Z,95961.97
2022-10-18T21:41:37.585Z,95956.59
2022-10-18T21:44:05.700Z,95952.88
2022-10-18T21:46:34.693Z,95959.28
2022-10-18T21:49:01.054Z,95955.09
2022-10-18T21:51:27.418Z,95956.75
2022-10-18T21:53:53.798Z,95955.66
2022-10-18T21:56:20.185Z,95949.53
2022-10-18T21:58:46.533Z,95945.44
2022-10-18T22:01:12.968Z,95943.81
2022-10-18T22:03:39.368Z,95943.41
2022-10-18T22:06:05.741Z,95938.53
2022-10-18T22:08:32.116Z,95934.59
2022-10-18T22:10:58.623Z,95933.94
2022-10-18T22:13:27.312Z,95936.09
2022-10-18T22:15:53.659Z,95935.69
2022-10-18T22:18:20.033Z,95933.28
2022-10-18T22:20:46.381Z,95930.81
2022-10-18T22:23:12.743Z,95936.78
2022-10-18T22:25:39.101Z,95940.81
2022-10-18T22:28:05.474Z,95926.97
2022-10-18T22:30:31.813Z,95933.16
2022-10-18T22:32:58.159Z,95927.88
2022-10-18T22:35:24.534Z,95924.88
2022-10-18T22:37:50.890Z,95925.13
2022-10-18T22:40:17.271Z,95922.94
2022-10-18T22:42:43.639Z,95926.63
2022-10-18T22:45:10.037Z,95916.63
2022-10-18T22:47:36.816Z,95912.44
2022-10-18T22:50:03.413Z,95914.28
2022-10-18T22:52:29.949Z,95914.28
2022-10-18T22:54:56.436Z,95911.84
2022-10-18T22:57:22.799Z,95909.91
2022-10-18T22:59:49.152Z,95904.97
2022-10-18T23:02:15.528Z,95906.06
2022-10-18T23:04:41.901Z,95903.72
2022-10-18T23:07:08.264Z,95899.19
2022-10-18T23:09:34.699Z,95898.50
2022-10-18T23:12:01.126Z,95893.16
2022-10-18T23:14:27.485Z,95891.72
2022-10-18T23:16:53.858Z,95890.28
2022-10-18T23:19:20.224Z,95890.28
2022-10-18T23:21:46.577Z,95888.69
2022-10-18T23:24:12.947Z,95884.16
2022-10-18T23:26:39.302Z,95885.00
2022-10-18T23:29:05.746Z,95882.78
2022-10-18T23:31:32.148Z,95883.53
2022-10-18T23:33:58.506Z,95887.34
2022-10-18T23:36:24.844Z,95877.41
2022-10-18T23:38:51.210Z,95879.69
2022-10-18T23:41:17.585Z,95878.50
2022-10-18T23:43:43.947Z,95872.47
2022-10-18T23:46:10.326Z,95877.06
2022-10-18T23:48:36.679Z,95880.59
2022-10-18T23:51:03.052Z,95874.38
2022-10-18T23:53:29.414Z,95873.78
2022-10-18T23:55:55.800Z,95876.06
2022-10-18T23:58:22.141Z,95874.53
